sensor_id;sensor_type;location;lat;lon;timestamp;pressure;altitude;pressure_sealevel;temperature;humidity
34983;BME280;21187;50.976;13.720;2022-12-29T00:03:28;97630.59;;;12.02;44.16
34983;BME280;21187;50.976;13.720;2022-12-29T00:08:30;97643.72;;;11.96;44.40
34983;BME280;21187;50.976;13.720;2022-12-29T00:13:42;97633.81;;;12.14;43.86
34983;BME280;21187;50.976;13.720;2022-12-29T00:19:04;97636.94;;;12.17;43.88
34983;BME280;21187;50.976;13.720;2022-12-29T00:24:08;97648.63;;;12.21;43.56
34983;BME280;21187;50.976;13.720;2022-12-29T00:29:29;97631.59;;;12.24;43.56
34983;BME280;21187;50.976;13.720;2022-12-29T00:34:50;97618.00;;;12.24;43.66
34983;BME280;21187;50.976;13.720;2022-12-29T00:40:10;97612.56;;;12.24;43.57
34983;BME280;21187;50.976;13.720;2022-12-29T00:45:30;97609.19;;;12.34;43.54
34983;BME280;21187;50.976;13.720;2022-12-29T00:50:32;97601.34;;;12.25;44.47
34983;BME280;21187;50.976;13.720;2022-12-29T00:55:37;97588.16;;;12.24;45.35
34983;BME280;21187;50.976;13.720;2022-12-29T01:00:41;97585.69;;;12.11;46.53
34983;BME280;21187;50.976;13.720;2022-12-29T01:05:43;97588.28;;;11.97;47.35
34983;BME280;21187;50.976;13.720;2022-12-29T01:10:57;97582.34;;;11.50;48.83
34983;BME280;21187;50.976;13.720;2022-12-29T01:15:59;97590.06;;;11.18;49.86
34983;BME280;21187;50.976;13.720;2022-12-29T01:21:04;97583.00;;;11.09;50.42
34983;BME280;21187;50.976;13.720;2022-12-29T01:26:15;97575.94;;;11.01;50.73
34983;BME280;21187;50.976;13.720;2022-12-29T01:31:18;97577.03;;;10.96;51.24
34983;BME280;21187;50.976;13.720;2022-12-29T01:36:20;97585.94;;;10.97;51.56
34983;BME280;21187;50.976;13.720;2022-12-29T01:41:23;97591.38;;;10.97;51.89
34983;BME280;21187;50.976;13.720;2022-12-29T01:46:37;97565.00;;;10.94;51.94
34983;BME280;21187;50.976;13.720;2022-12-29T01:51:51;97568.13;;;10.96;52.26
34983;BME280;21187;50.976;13.720;2022-12-29T01:56:55;97579.72;;;10.93;52.73
34983;BME280;21187;50.976;13.720;2022-12-29T02:01:59;97561.44;;;10.90;52.72
34983;BME280;21187;50.976;13.720;2022-12-29T02:07:10;97558.75;;;10.90;53.06
34983;BME280;21187;50.976;13.720;2022-12-29T02:12:16;97549.91;;;10.93;53.20
34983;BME280;21187;50.976;13.720;2022-12-29T02:43:58;97511.25;;;11.33;52.32
34983;BME280;21187;50.976;13.720;2022-12-29T02:49:22;97519.13;;;11.42;52.01
34983;BME280;21187;50.976;13.720;2022-12-29T02:54:27;97516.06;;;11.47;51.49
34983;BME280;21187;50.976;13.720;2022-12-29T02:59:54;97510.75;;;11.58;51.13
34983;BME280;21187;50.976;13.720;2022-12-29T03:10:29;97505.59;;;11.87;50.59
34983;BME280;21187;50.976;13.720;2022-12-29T03:15:41;97511.19;;;12.02;50.19
34983;BME280;21187;50.976;13.720;2022-12-29T03:21:12;97525.97;;;12.11;49.82
34983;BME280;21187;50.976;13.720;2022-12-29T03:26:18;97501.28;;;12.24;49.25
34983;BME280;21187;50.976;13.720;2022-12-29T03:31:23;97518.81;;;12.37;49.06
34983;BME280;21187;50.976;13.720;2022-12-29T03:36:32;97507.22;;;12.44;48.94
34983;BME280;21187;50.976;13.720;2022-12-29T03:41:41;97491.34;;;12.49;48.64
34983;BME280;21187;50.976;13.720;2022-12-29T03:46:46;97486.72;;;12.54;48.77
34983;BME280;21187;50.976;13.720;2022-12-29T03:51:48;97493.72;;;12.58;48.42
34983;BME280;21187;50.976;13.720;2022-12-29T03:56:53;97484.44;;;12.63;48.47
34983;BME280;21187;50.976;13.720;2022-12-29T04:02:06;97477.88;;;12.68;48.36
34983;BME280;21187;50.976;13.720;2022-12-29T04:07:09;97480.16;;;12.65;48.62
34983;BME280;21187;50.976;13.720;2022-12-29T04:12:11;97477.09;;;12.67;48.59
34983;BME280;21187;50.976;13.720;2022-12-29T04:17:12;97479.81;;;12.67;48.59
34983;BME280;21187;50.976;13.720;2022-12-29T04:22:16;97458.09;;;12.67;48.74
34983;BME280;21187;50.976;13.720;2022-12-29T04:27:19;97465.06;;;12.68;48.77
34983;BME280;21187;50.976;13.720;2022-12-29T04:32:41;97458.09;;;12.67;48.79
34983;BME280;21187;50.976;13.720;2022-12-29T04:37:43;97455.38;;;12.67;49.03
34983;BME280;21187;50.976;13.720;2022-12-29T04:42:45;97451.84;;;12.63;49.15
34983;BME280;21187;50.976;13.720;2022-12-29T04:47:47;97453.38;;;12.57;49.19
34983;BME280;21187;50.976;13.720;2022-12-29T04:53:08;97463.09;;;12.65;48.97
34983;BME280;21187;50.976;13.720;2022-12-29T04:58:11;97458.44;;;12.62;49.29
34983;BME280;21187;50.976;13.720;2022-12-29T05:03:21;97471.22;;;12.58;50.09
34983;BME280;21187;50.976;13.720;2022-12-29T05:08:24;97478.88;;;12.41;51.15
34983;BME280;21187;50.976;13.720;2022-12-29T05:13:31;97485.81;;;12.31;51.77
34983;BME280;21187;50.976;13.720;2022-12-29T05:18:34;97493.50;;;12.26;51.73
34983;BME280;21187;50.976;13.720;2022-12-29T05:23:37;97493.13;;;12.24;51.99
34983;BME280;21187;50.976;13.720;2022-12-29T05:28:40;97476.84;;;12.24;51.83
34983;BME280;21187;50.976;13.720;2022-12-29T05:33:46;97509.03;;;12.25;51.83
34983;BME280;21187;50.976;13.720;2022-12-29T05:38:48;97501.31;;;12.31;51.91
34983;BME280;21187;50.976;13.720;2022-12-29T05:43:51;97513.72;;;12.32;51.66
34983;BME280;21187;50.976;13.720;2022-12-29T05:49:05;97512.19;;;12.35;51.68
34983;BME280;21187;50.976;13.720;2022-12-29T05:54:32;97503.66;;;12.36;51.41
34983;BME280;21187;50.976;13.720;2022-12-29T05:59:35;97500.59;;;12.41;51.40
34983;BME280;21187;50.976;13.720;2022-12-29T06:04:38;97510.31;;;12.42;51.35
34983;BME280;21187;50.976;13.720;2022-12-29T06:09:41;97515.34;;;12.40;51.60
34983;BME280;21187;50.976;13.720;2022-12-29T06:14:44;97516.13;;;12.41;51.55
34983;BME280;21187;50.976;13.720;2022-12-29T06:19:46;97526.22;;;12.44;51.42
34983;BME280;21187;50.976;13.720;2022-12-29T06:24:48;97518.50;;;12.49;51.06
34983;BME280;21187;50.976;13.720;2022-12-29T06:29:50;97527.09;;;12.59;50.82
34983;BME280;21187;50.976;13.720;2022-12-29T06:34:52;97512.34;;;12.60;50.55
34983;BME280;21187;50.976;13.720;2022-12-29T06:39:54;97508.13;;;12.66;49.97
34983;BME280;21187;50.976;13.720;2022-12-29T06:44:59;97511.97;;;12.61;50.16
34983;BME280;21187;50.976;13.720;2022-12-29T06:50:02;97502.25;;;12.57;49.93
34983;BME280;21187;50.976;13.720;2022-12-29T06:55:05;97511.19;;;12.54;49.97
34983;BME280;21187;50.976;13.720;2022-12-29T07:00:08;97501.06;;;12.51;49.81
34983;BME280;21187;50.976;13.720;2022-12-29T07:05:10;97511.16;;;12.50;49.95
34983;BME280;21187;50.976;13.720;2022-12-29T07:10:12;97489.81;;;12.48;49.94
34983;BME280;21187;50.976;13.720;2022-12-29T07:15:14;97495.97;;;12.45;50.07
34983;BME280;21187;50.976;13.720;2022-12-29T07:20:17;97510.72;;;12.48;50.03
34983;BME280;21187;50.976;13.720;2022-12-29T07:25:27;97516.94;;;12.45;49.88
34983;BME280;21187;50.976;13.720;2022-12-29T07:30:31;97527.75;;;12.41;50.14
34983;BME280;21187;50.976;13.720;2022-12-29T07:35:34;97513.81;;;12.46;50.50
34983;BME280;21187;50.976;13.720;2022-12-29T07:40:36;97509.19;;;12.51;50.42
34983;BME280;21187;50.976;13.720;2022-12-29T07:45:39;97491.41;;;12.57;50.51
34983;BME280;21187;50.976;13.720;2022-12-29T07:50:44;97510.25;;;13.02;48.89
34983;BME280;21187;50.976;13.720;2022-12-29T07:55:47;97506.41;;;13.13;48.64
34983;BME280;21187;50.976;13.720;2022-12-29T08:00:54;97499.34;;;12.94;48.80
34983;BME280;21187;50.976;13.720;2022-12-29T08:05:56;97504.75;;;12.94;48.66
34983;BME280;21187;50.976;13.720;2022-12-29T08:10:59;97517.09;;;12.77;49.07
34983;BME280;21187;50.976;13.720;2022-12-29T08:16:01;97530.34;;;12.79;48.85
34983;BME280;21187;50.976;13.720;2022-12-29T08:21:04;97527.97;;;12.77;49.05
34983;BME280;21187;50.976;13.720;2022-12-29T08:26:07;97532.69;;;12.88;48.51
34983;BME280;21187;50.976;13.720;2022-12-29T08:31:10;97526.72;;;13.38;47.16
34983;BME280;21187;50.976;13.720;2022-12-29T08:36:13;97520.56;;;13.62;46.32
34983;BME280;21187;50.976;13.720;2022-12-29T08:41:15;97532.25;;;13.77;45.74
34983;BME280;21187;50.976;13.720;2022-12-29T08:46:18;97528.75;;;13.84;45.11
34983;BME280;21187;50.976;13.720;2022-12-29T08:51:21;97540.00;;;13.68;45.76
34983;BME280;21187;50.976;13.720;2022-12-29T08:56:26;97531.50;;;13.91;44.97
34983;BME280;21187;50.976;13.720;2022-12-29T09:01:31;97538.44;;;13.63;45.93
34983;BME280;21187;50.976;13.720;2022-12-29T09:06:36;97512.03;;;13.89;45.25
34983;BME280;21187;50.976;13.720;2022-12-29T09:11:42;97520.97;;;13.82;45.73
34983;BME280;21187;50.976;13.720;2022-12-29T09:16:45;97527.59;;;13.96;45.58
34983;BME280;21187;50.976;13.720;2022-12-29T09:22:06;97511.25;;;13.96;45.48
34983;BME280;21187;50.976;13.720;2022-12-29T09:27:07;97507.38;;;13.97;45.51
34983;BME280;21187;50.976;13.720;2022-12-29T09:32:09;97510.03;;;13.46;46.38
34983;BME280;21187;50.976;13.720;2022-12-29T09:37:18;97506.84;;;13.34;46.64
34983;BME280;21187;50.976;13.720;2022-12-29T09:43:38;97522.13;;;13.74;45.68
34983;BME280;21187;50.976;13.720;2022-12-29T09:48:17;97498.03;;;13.91;44.98
34983;BME280;21187;50.976;13.720;2022-12-29T09:58:32;97511.25;;;13.96;44.39
34983;BME280;21187;50.976;13.720;2022-12-29T10:03:50;97509.72;;;13.95;44.55
34983;BME280;21187;50.976;13.720;2022-12-29T10:09:02;97517.50;;;13.93;44.42
34983;BME280;21187;50.976;13.720;2022-12-29T10:24:41;97520.22;;;14.22;43.45
34983;BME280;21187;50.976;13.720;2022-12-29T10:29:55;97520.59;;;14.31;43.43
34983;BME280;21187;50.976;13.720;2022-12-29T10:35:05;97515.94;;;14.35;43.20
34983;BME280;21187;50.976;13.720;2022-12-29T10:40:19;97512.81;;;14.37;43.19
34983;BME280;21187;50.976;13.720;2022-12-29T10:45:28;97494.13;;;14.42;43.06
34983;BME280;21187;50.976;13.720;2022-12-29T10:50:31;97492.56;;;14.48;43.59
34983;BME280;21187;50.976;13.720;2022-12-29T10:55:35;97475.44;;;14.52;43.36
34983;BME280;21187;50.976;13.720;2022-12-29T11:00:38;97476.56;;;14.61;43.50
34983;BME280;21187;50.976;13.720;2022-12-29T11:05:50;97477.31;;;14.76;43.26
34983;BME280;21187;50.976;13.720;2022-12-29T11:10:59;97478.88;;;14.81;43.60
34983;BME280;21187;50.976;13.720;2022-12-29T11:16:02;97478.44;;;14.97;43.40
34983;BME280;21187;50.976;13.720;2022-12-29T11:21:31;97467.44;;;15.15;42.85
34983;BME280;21187;50.976;13.720;2022-12-29T11:26:33;97463.84;;;15.29;42.87
34983;BME280;21187;50.976;13.720;2022-12-29T11:31:42;97459.50;;;15.42;42.62
34983;BME280;21187;50.976;13.720;2022-12-29T11:36:45;97451.69;;;15.44;42.50
34983;BME280;21187;50.976;13.720;2022-12-29T11:41:51;97454.75;;;15.50;42.45
34983;BME280;21187;50.976;13.720;2022-12-29T11:46:54;97468.00;;;15.52;42.35
34983;BME280;21187;50.976;13.720;2022-12-29T11:51:57;97462.59;;;15.44;42.39
34983;BME280;21187;50.976;13.720;2022-12-29T11:57:12;97455.16;;;15.48;42.62
34983;BME280;21187;50.976;13.720;2022-12-29T12:02:36;97450.94;;;15.40;42.54
34983;BME280;21187;50.976;13.720;2022-12-29T12:07:52;97453.97;;;15.53;42.42
34983;BME280;21187;50.976;13.720;2022-12-29T12:13:07;97459.88;;;15.44;42.21
34983;BME280;21187;50.976;13.720;2022-12-29T12:18:45;97450.13;;;15.43;42.46
34983;BME280;21187;50.976;13.720;2022-12-29T12:29:18;97442.34;;;15.42;42.26
34983;BME280;21187;50.976;13.720;2022-12-29T12:34:28;97447.41;;;15.40;42.09
34983;BME280;21187;50.976;13.720;2022-12-29T12:55:39;97433.75;;;15.47;41.81
34983;BME280;21187;50.976;13.720;2022-12-29T13:11:35;97430.44;;;17.23;39.32
34983;BME280;21187;50.976;13.720;2022-12-29T13:22:13;97419.97;;;20.49;33.63
34983;BME280;21187;50.976;13.720;2022-12-29T13:32:55;97427.00;;;18.81;34.98
34983;BME280;21187;50.976;13.720;2022-12-29T13:38:09;97432.28;;;17.57;36.83
34983;BME280;21187;50.976;13.720;2022-12-29T13:43:13;97433.25;;;16.85;38.35
34983;BME280;21187;50.976;13.720;2022-12-29T13:48:22;97431.84;;;16.35;38.89
34983;BME280;21187;50.976;13.720;2022-12-29T13:53:35;97459.81;;;16.08;39.67
34983;BME280;21187;50.976;13.720;2022-12-29T13:58:46;97444.41;;;15.83;40.17
34983;BME280;21187;50.976;13.720;2022-12-29T14:03:53;97454.66;;;15.68;40.57
34983;BME280;21187;50.976;13.720;2022-12-29T14:08:57;97451.22;;;15.57;40.95
34983;BME280;21187;50.976;13.720;2022-12-29T14:14:18;97442.34;;;15.45;41.17
34983;BME280;21187;50.976;13.720;2022-12-29T14:19:33;97454.91;;;15.28;41.24
34983;BME280;21187;50.976;13.720;2022-12-29T14:24:42;97449.47;;;15.21;41.65
34983;BME280;21187;50.976;13.720;2022-12-29T14:29:46;97465.09;;;15.13;41.40
34983;BME280;21187;50.976;13.720;2022-12-29T14:34:49;97458.88;;;15.09;41.73
34983;BME280;21187;50.976;13.720;2022-12-29T14:55:43;97501.81;;;14.87;41.99
34983;BME280;21187;50.976;13.720;2022-12-29T15:00:48;97483.53;;;14.88;41.89
34983;BME280;21187;50.976;13.720;2022-12-29T15:06:09;97478.84;;;14.92;41.92
34983;BME280;21187;50.976;13.720;2022-12-29T15:11:19;97483.53;;;14.91;42.08
34983;BME280;21187;50.976;13.720;2022-12-29T15:21:33;97494.47;;;14.77;42.32
34983;BME280;21187;50.976;13.720;2022-12-29T15:26:40;97494.47;;;14.73;42.63
34983;BME280;21187;50.976;13.720;2022-12-29T15:31:46;97504.22;;;14.67;42.62
34983;BME280;21187;50.976;13.720;2022-12-29T15:36:50;97513.19;;;14.64;43.13
34983;BME280;21187;50.976;13.720;2022-12-29T15:41:56;97523.69;;;14.55;42.48
34983;BME280;21187;50.976;13.720;2022-12-29T15:47:05;97522.16;;;14.46;42.32
34983;BME280;21187;50.976;13.720;2022-12-29T15:52:09;97543.94;;;14.43;42.63
34983;BME280;21187;50.976;13.720;2022-12-29T16:02:23;97560.69;;;14.41;42.44
34983;BME280;21187;50.976;13.720;2022-12-29T16:07:30;97562.22;;;14.35;42.60
34983;BME280;21187;50.976;13.720;2022-12-29T16:12:41;97577.41;;;14.32;42.77
34983;BME280;21187;50.976;13.720;2022-12-29T16:17:48;97563.00;;;14.21;43.11
34983;BME280;21187;50.976;13.720;2022-12-29T16:22:55;97573.50;;;14.12;43.23
34983;BME280;21187;50.976;13.720;2022-12-29T16:28:03;97571.94;;;14.00;43.38
34983;BME280;21187;50.976;13.720;2022-12-29T16:33:39;97584.00;;;14.06;43.22
34983;BME280;21187;50.976;13.720;2022-12-29T16:38:41;97592.94;;;14.03;43.80
34983;BME280;21187;50.976;13.720;2022-12-29T16:43:44;97594.88;;;13.95;43.83
34983;BME280;21187;50.976;13.720;2022-12-29T16:48:53;97585.91;;;13.80;44.33
34983;BME280;21187;50.976;13.720;2022-12-29T16:53:56;97587.47;;;13.78;44.08
34983;BME280;21187;50.976;13.720;2022-12-29T16:59:08;97596.81;;;13.80;44.19
34983;BME280;21187;50.976;13.720;2022-12-29T17:04:12;97599.13;;;13.71;44.87
34983;BME280;21187;50.976;13.720;2022-12-29T17:09:24;97604.50;;;13.64;44.85
34983;BME280;21187;50.976;13.720;2022-12-29T17:19:52;97615.38;;;13.57;44.95
34983;BME280;21187;50.976;13.720;2022-12-29T17:24:57;97600.59;;;13.51;45.17
34983;BME280;21187;50.976;13.720;2022-12-29T17:30:12;97616.13;;;13.46;45.66
34983;BME280;21187;50.976;13.720;2022-12-29T17:35:19;97613.38;;;13.43;45.56
34983;BME280;21187;50.976;13.720;2022-12-29T17:40:24;97620.78;;;13.42;45.79
34983;BME280;21187;50.976;13.720;2022-12-29T17:45:29;97609.88;;;13.42;45.73
34983;BME280;21187;50.976;13.720;2022-12-29T17:50:32;97617.25;;;13.38;45.71
34983;BME280;21187;50.976;13.720;2022-12-29T17:55:34;97632.38;;;13.36;45.77
34983;BME280;21187;50.976;13.720;2022-12-29T18:00:39;97628.13;;;13.38;45.65
34983;BME280;21187;50.976;13.720;2022-12-29T18:05:41;97624.56;;;13.34;45.68
34983;BME280;21187;50.976;13.720;2022-12-29T18:10:44;97629.22;;;13.30;45.94
34983;BME280;21187;50.976;13.720;2022-12-29T18:15:47;97633.13;;;13.29;46.14
34983;BME280;21187;50.976;13.720;2022-12-29T18:20:52;97631.50;;;13.21;46.12
34983;BME280;21187;50.976;13.720;2022-12-29T18:26:06;97634.63;;;13.23;46.13
34983;BME280;21187;50.976;13.720;2022-12-29T18:31:22;97634.47;;;13.01;46.54
34983;BME280;21187;50.976;13.720;2022-12-29T18:36:25;97640.66;;;12.91;47.15
34983;BME280;21187;50.976;13.720;2022-12-29T18:41:28;97645.28;;;12.87;47.46
34983;BME280;21187;50.976;13.720;2022-12-29T18:46:30;97639.88;;;12.94;47.29
34983;BME280;21187;50.976;13.720;2022-12-29T18:51:33;97641.50;;;13.02;47.02
34983;BME280;21187;50.976;13.720;2022-12-29T18:56:34;97622.09;;;13.07;47.11
34983;BME280;21187;50.976;13.720;2022-12-29T19:01:36;97630.63;;;13.02;47.19
34983;BME280;21187;50.976;13.720;2022-12-29T19:06:39;97630.63;;;13.02;47.22
34983;BME280;21187;50.976;13.720;2022-12-29T19:11:41;97625.19;;;13.02;47.38
34983;BME280;21187;50.976;13.720;2022-12-29T19:16:43;97633.75;;;13.04;47.48
34983;BME280;21187;50.976;13.720;2022-12-29T19:21:46;97630.66;;;13.06;47.11
34983;BME280;21187;50.976;13.720;2022-12-29T19:26:48;97624.06;;;12.55;47.92
34983;BME280;21187;50.976;13.720;2022-12-29T19:31:50;97642.16;;;12.85;47.51
34983;BME280;21187;50.976;13.720;2022-12-29T19:36:52;97632.16;;;12.96;47.25
34983;BME280;21187;50.976;13.720;2022-12-29T19:41:54;97635.25;;;12.98;47.02
34983;BME280;21187;50.976;13.720;2022-12-29T19:47:02;97630.22;;;13.00;46.87
34983;BME280;21187;50.976;13.720;2022-12-29T19:52:04;97629.81;;;12.98;46.53
34983;BME280;21187;50.976;13.720;2022-12-29T19:57:07;97601.88;;;13.01;46.21
34983;BME280;21187;50.976;13.720;2022-12-29T20:02:31;97614.31;;;13.02;45.96
34983;BME280;21187;50.976;13.720;2022-12-29T20:07:35;97589.47;;;13.04;45.89
34983;BME280;21187;50.976;13.720;2022-12-29T20:12:37;97602.31;;;13.10;45.63
34983;BME280;21187;50.976;13.720;2022-12-29T20:17:39;97617.06;;;13.09;45.71
34983;BME280;21187;50.976;13.720;2022-12-29T20:23:01;97620.16;;;13.04;45.47
34983;BME280;21187;50.976;13.720;2022-12-29T20:28:03;97624.44;;;13.05;45.38
34983;BME280;21187;50.976;13.720;2022-12-29T20:33:05;97619.28;;;12.93;45.63
34983;BME280;21187;50.976;13.720;2022-12-29T20:38:09;97628.16;;;12.82;45.57
34983;BME280;21187;50.976;13.720;2022-12-29T20:43:13;97619.50;;;12.66;45.83
34983;BME280;21187;50.976;13.720;2022-12-29T20:48:15;97624.16;;;12.65;45.99
34983;BME280;21187;50.976;13.720;2022-12-29T20:53:17;97629.50;;;12.55;46.13
34983;BME280;21187;50.976;13.720;2022-12-29T20:58:19;97647.31;;;12.48;46.10
34983;BME280;21187;50.976;13.720;2022-12-29T21:03:25;97650.38;;;12.43;46.14
34983;BME280;21187;50.976;13.720;2022-12-29T21:08:28;97646.44;;;12.37;46.33
34983;BME280;21187;50.976;13.720;2022-12-29T21:13:33;97656.38;;;12.22;46.82
34983;BME280;21187;50.976;13.720;2022-12-29T21:18:36;97663.31;;;12.16;46.64
34983;BME280;21187;50.976;13.720;2022-12-29T21:23:38;97669.09;;;12.14;46.75
34983;BME280;21187;50.976;13.720;2022-12-29T21:28:40;97683.41;;;12.11;46.67
34983;BME280;21187;50.976;13.720;2022-12-29T21:33:44;97696.09;;;12.00;46.85
34983;BME280;21187;50.976;13.720;2022-12-29T21:38:46;97686.13;;;11.77;47.19
34983;BME280;21187;50.976;13.720;2022-12-29T21:43:48;97688.72;;;11.70;47.54
34983;BME280;21187;50.976;13.720;2022-12-29T21:49:09;97695.97;;;11.59;47.84
34983;BME280;21187;50.976;13.720;2022-12-29T21:54:12;97699.81;;;11.58;47.96
34983;BME280;21187;50.976;13.720;2022-12-29T21:59:32;97714.56;;;11.60;47.81
34983;BME280;21187;50.976;13.720;2022-12-29T22:04:52;97711.44;;;11.58;48.05
34983;BME280;21187;50.976;13.720;2022-12-29T22:10:12;97719.44;;;11.47;48.43
34983;BME280;21187;50.976;13.720;2022-12-29T22:15:34;97720.88;;;11.38;48.61
34983;BME280;21187;50.976;13.720;2022-12-29T22:20:36;97733.94;;;11.32;49.18
34983;BME280;21187;50.976;13.720;2022-12-29T22:25:38;97740.53;;;11.31;49.01
34983;BME280;21187;50.976;13.720;2022-12-29T22:30:41;97740.53;;;11.31;48.81
34983;BME280;21187;50.976;13.720;2022-12-29T22:35:43;97732.72;;;11.29;49.23
34983;BME280;21187;50.976;13.720;2022-12-29T22:40:45;97738.13;;;11.26;48.97
34983;BME280;21187;50.976;13.720;2022-12-29T22:45:47;97741.84;;;11.18;49.22
34983;BME280;21187;50.976;13.720;2022-12-29T22:50:53;97728.72;;;11.20;49.48
34983;BME280;21187;50.976;13.720;2022-12-29T22:56:09;97734.16;;;11.20;49.23
34983;BME280;21187;50.976;13.720;2022-12-29T23:01:14;97734.16;;;11.20;49.19
34983;BME280;21187;50.976;13.720;2022-12-29T23:06:16;97742.72;;;11.22;48.78
34983;BME280;21187;50.976;13.720;2022-12-29T23:11:18;97753.56;;;11.22;48.78
34983;BME280;21187;50.976;13.720;2022-12-29T23:16:20;97748.91;;;11.22;48.66
34983;BME280;21187;50.976;13.720;2022-12-29T23:21:22;97747.78;;;11.27;48.85
34983;BME280;21187;50.976;13.720;2022-12-29T23:26:26;97738.16;;;11.29;48.73
34983;BME280;21187;50.976;13.720;2022-12-29T23:31:29;97746.34;;;11.33;48.97
34983;BME280;21187;50.976;13.720;2022-12-29T23:36:32;97737.06;;;11.34;48.74
34983;BME280;21187;50.976;13.720;2022-12-29T23:41:34;97740.63;;;11.38;48.60
34983;BME280;21187;50.976;13.720;2022-12-29T23:46:36;97760.72;;;11.37;48.28
34983;BME280;21187;50.976;13.720;2022-12-29T23:51:38;97757.63;;;11.35;48.42
34983;BME280;21187;50.976;13.720;2022-12-29T23:56:40;97770.66;;;11.26;48.94
